createdAt,value
2022-09-02T00:00:01.179Z,18.90
2022-09-02T00:01:01.223Z,18.86
2022-09-02T00:02:01.275Z,18.66
2022-09-02T00:03:01.295Z,18.69
2022-09-02T00:04:01.127Z,18.49
2022-09-02T00:05:01.118Z,18.36
2022-09-02T00:06:01.144Z,18.39
2022-09-02T00:07:01.095Z,18.49
2022-09-02T00:08:01.149Z,18.54
2022-09-02T00:09:01.110Z,18.57
2022-09-02T00:10:01.087Z,18.39
2022-09-02T00:11:01.110Z,18.32
2022-09-02T00:12:01.053Z,18.31
2022-09-02T00:13:01.040Z,18.10
2022-09-02T00:14:01.058Z,18.01
2022-09-02T00:15:01.017Z,17.98
2022-09-02T00:16:01.044Z,17.87
2022-09-02T00:17:01.204Z,17.60
2022-09-02T00:18:00.990Z,17.39
2022-09-02T00:19:00.967Z,17.32
2022-09-02T00:20:00.972Z,17.07
2022-09-02T00:21:00.995Z,16.92
2022-09-02T00:22:00.966Z,16.73
2022-09-02T00:23:00.941Z,16.59
2022-09-02T00:24:00.960Z,16.50
2022-09-02T00:25:00.919Z,16.30
2022-09-02T00:26:00.977Z,16.06
2022-09-02T00:27:00.897Z,15.93
2022-09-02T00:28:00.869Z,15.89
2022-09-02T00:29:00.889Z,15.85
2022-09-02T00:30:00.901Z,15.62
2022-09-02T00:31:00.869Z,15.56
2022-09-02T00:32:00.885Z,15.52
2022-09-02T00:33:00.816Z,15.43
2022-09-02T00:34:00.835Z,15.25
2022-09-02T00:35:00.846Z,15.16
2022-09-02T00:36:00.795Z,15.13
2022-09-02T00:37:00.832Z,15.01
2022-09-02T00:38:00.753Z,14.98
2022-09-02T00:39:00.751Z,15.15
2022-09-02T00:40:00.830Z,15.18
2022-09-02T00:41:00.744Z,15.18
2022-09-02T00:42:00.734Z,15.15
2022-09-02T00:43:00.716Z,15.16
2022-09-02T00:44:00.693Z,15.15
2022-09-02T00:45:00.692Z,15.04
2022-09-02T00:46:00.755Z,15.11
2022-09-02T00:47:00.674Z,15.13
2022-09-02T00:48:00.682Z,15.51
2022-09-02T00:49:00.654Z,15.80
2022-09-02T00:50:00.618Z,15.96
2022-09-02T00:51:00.638Z,15.80
2022-09-02T00:52:00.621Z,15.74
2022-09-02T00:53:00.635Z,15.76
2022-09-02T00:54:00.621Z,15.74
2022-09-02T00:55:00.613Z,15.66
2022-09-02T00:56:00.588Z,15.60
2022-09-02T00:57:00.619Z,15.59
2022-09-02T00:58:00.544Z,15.53
2022-09-02T00:59:00.541Z,15.46
2022-09-02T01:00:00.582Z,15.37
2022-09-02T01:01:00.689Z,15.22
2022-09-02T01:02:00.686Z,15.09
2022-09-02T01:03:00.518Z,15.01
2022-09-02T01:04:00.502Z,14.79
2022-09-02T01:05:00.540Z,14.74
2022-09-02T01:06:00.487Z,14.60
2022-09-02T01:07:00.460Z,14.52
2022-09-02T01:08:00.464Z,14.53
2022-09-02T01:09:00.432Z,14.39
2022-09-02T01:10:00.427Z,14.41
2022-09-02T01:11:00.472Z,14.30
2022-09-02T01:12:00.432Z,14.29
2022-09-02T01:13:00.384Z,14.27
2022-09-02T01:14:00.376Z,14.29
2022-09-02T01:15:00.361Z,14.26
2022-09-02T01:16:00.442Z,14.29
2022-09-02T01:17:00.360Z,14.20
2022-09-02T01:18:00.327Z,13.98
2022-09-02T01:19:00.380Z,13.94
2022-09-02T01:20:00.312Z,14.04
2022-09-02T01:21:00.347Z,14.11
2022-09-02T01:22:00.322Z,13.98
2022-09-02T01:23:00.294Z,13.94
2022-09-02T01:24:00.256Z,13.86
2022-09-02T01:25:00.265Z,13.93
2022-09-02T01:26:00.263Z,13.91
2022-09-02T01:27:00.241Z,13.75
2022-09-02T01:28:00.239Z,13.68
2022-09-02T01:29:00.233Z,13.65
2022-09-02T01:30:00.236Z,13.61
2022-09-02T01:31:00.230Z,13.54
2022-09-02T01:32:00.312Z,13.43
2022-09-02T01:33:00.161Z,13.43
2022-09-02T01:34:00.166Z,13.36
2022-09-02T01:35:00.166Z,13.28
2022-09-02T01:36:00.211Z,13.21
2022-09-02T01:37:00.124Z,13.25
2022-09-02T01:38:00.116Z,13.04
2022-09-02T01:39:00.121Z,13.10
2022-09-02T01:40:00.162Z,13.28
2022-09-02T01:41:00.103Z,13.22
2022-09-02T01:42:00.152Z,13.22
2022-09-02T01:43:00.098Z,13.22
2022-09-02T01:44:00.048Z,13.16
2022-09-02T01:45:00.055Z,13.14
2022-09-02T01:46:00.041Z,13.07
2022-09-02T01:47:00.182Z,13.12
2022-09-02T01:48:00.082Z,13.06
2022-09-02T01:49:00.048Z,12.94
2022-09-02T01:49:59.987Z,12.87
2022-09-02T01:51:00.033Z,13.03
2022-09-02T01:52:00.011Z,13.07
2022-09-02T01:52:59.960Z,13.54
2022-09-02T01:53:59.947Z,13.72
2022-09-02T01:54:59.929Z,13.94
2022-09-02T01:55:59.993Z,13.86
2022-09-02T01:56:59.920Z,13.75
2022-09-02T01:57:59.914Z,13.83
2022-09-02T01:58:59.913Z,13.91
2022-09-02T01:59:59.882Z,13.80
2022-09-02T02:01:00.201Z,13.73
2022-09-02T02:01:59.944Z,13.83
2022-09-02T02:02:59.859Z,13.76
2022-09-02T02:03:59.874Z,13.71
2022-09-02T02:04:59.832Z,13.65
2022-09-02T02:05:59.926Z,13.53
2022-09-02T02:06:59.839Z,13.53
2022-09-02T02:07:59.784Z,13.65
2022-09-02T02:08:59.792Z,13.63
2022-09-02T02:09:59.800Z,13.54
2022-09-02T02:10:59.829Z,13.27
2022-09-02T02:11:59.766Z,13.29
2022-09-02T02:12:59.776Z,13.41
2022-09-02T02:13:59.746Z,13.47
2022-09-02T02:14:59.728Z,13.38
2022-09-02T02:15:59.809Z,13.41
2022-09-02T02:16:59.693Z,13.28
2022-09-02T02:17:59.746Z,13.29
2022-09-02T02:18:59.665Z,13.22
2022-09-02T02:19:59.701Z,13.12
2022-09-02T02:20:59.653Z,13.19
2022-09-02T02:21:59.642Z,13.25
2022-09-02T02:22:59.649Z,13.22
2022-09-02T02:23:59.626Z,13.09
2022-09-02T02:24:59.615Z,13.07
2022-09-02T02:25:59.591Z,13.04
2022-09-02T02:26:59.630Z,13.07
2022-09-02T02:27:59.587Z,13.07
2022-09-02T02:28:59.597Z,12.94
2022-09-02T02:29:59.544Z,12.89
2022-09-02T02:30:59.555Z,12.87
2022-09-02T02:31:59.566Z,12.94
2022-09-02T02:32:59.510Z,13.03
2022-09-02T02:33:59.526Z,12.92
2022-09-02T02:34:59.510Z,12.80
2022-09-02T02:35:59.483Z,12.73
2022-09-02T02:36:59.511Z,12.69
2022-09-02T02:37:59.498Z,12.66
2022-09-02T02:38:59.473Z,12.73
2022-09-02T02:39:59.434Z,12.84
2022-09-02T02:40:59.465Z,13.01
2022-09-02T02:41:59.431Z,13.01
2022-09-02T02:42:59.407Z,13.04
2022-09-02T02:43:59.401Z,13.14
2022-09-02T02:44:59.418Z,13.19
2022-09-02T02:45:59.420Z,13.07
2022-09-02T02:46:59.437Z,13.04
2022-09-02T02:47:59.359Z,13.04
2022-09-02T02:48:59.349Z,12.92
2022-09-02T02:49:59.336Z,12.85
2022-09-02T02:50:59.401Z,12.87
2022-09-02T02:51:59.307Z,12.67
2022-09-02T02:52:59.302Z,12.61
2022-09-02T02:53:59.295Z,12.69
2022-09-02T02:54:59.279Z,12.71
2022-09-02T02:55:59.291Z,12.61
2022-09-02T02:56:59.256Z,12.69
2022-09-02T02:57:59.302Z,12.76
2022-09-02T02:58:59.261Z,12.73
2022-09-02T02:59:59.219Z,12.74
2022-09-02T03:00:59.236Z,12.88
2022-09-02T03:01:59.384Z,12.81
2022-09-02T03:02:59.295Z,12.88
2022-09-02T03:03:59.173Z,12.96
2022-09-02T03:04:59.178Z,12.95
2022-09-02T03:05:59.177Z,12.92
2022-09-02T03:06:59.146Z,12.96
2022-09-02T03:07:59.131Z,12.89
2022-09-02T03:08:59.155Z,12.94
2022-09-02T03:09:59.130Z,12.88
2022-09-02T03:10:59.125Z,12.77
2022-09-02T03:11:59.099Z,12.62
2022-09-02T03:12:59.089Z,12.56
2022-09-02T03:13:59.087Z,12.48
2022-09-02T03:14:59.058Z,12.51
2022-09-02T03:15:59.168Z,12.54
2022-09-02T03:16:59.047Z,12.49
2022-09-02T03:17:59.101Z,12.56
2022-09-02T03:18:59.047Z,12.61
2022-09-02T03:19:59.016Z,12.58
2022-09-02T03:20:59.014Z,12.54
2022-09-02T03:21:59.034Z,12.54
2022-09-02T03:22:58.987Z,12.34
2022-09-02T03:23:59.000Z,12.25
2022-09-02T03:24:58.960Z,12.16
2022-09-02T03:25:58.961Z,12.16
2022-09-02T03:26:58.976Z,12.08
2022-09-02T03:27:58.933Z,12.07
2022-09-02T03:28:58.921Z,11.85
2022-09-02T03:29:58.923Z,11.85
2022-09-02T03:30:58.974Z,12.04
2022-09-02T03:31:58.901Z,12.03
2022-09-02T03:33:03.242Z,12.04
2022-09-02T03:33:59.874Z,12.01
2022-09-02T03:34:58.901Z,11.94
2022-09-02T03:35:58.856Z,11.81
2022-09-02T03:36:58.843Z,11.79
2022-09-02T03:37:58.826Z,11.88
2022-09-02T03:38:58.823Z,11.94
2022-09-02T03:39:58.823Z,11.90
2022-09-02T03:40:58.800Z,11.79
2022-09-02T03:41:58.783Z,11.81
2022-09-02T03:43:00.385Z,11.62
2022-09-02T03:43:58.758Z,11.62
2022-09-02T03:44:58.777Z,11.74
2022-09-02T03:45:58.804Z,11.69
2022-09-02T03:46:58.755Z,11.90
2022-09-02T03:47:58.726Z,12.13
2022-09-02T03:48:58.720Z,12.15
2022-09-02T03:49:58.690Z,12.07
2022-09-02T03:50:58.684Z,12.12
2022-09-02T03:51:58.693Z,11.97
2022-09-02T03:52:58.670Z,11.93
2022-09-02T03:53:58.645Z,11.87
2022-09-02T03:54:58.689Z,11.81
2022-09-02T03:55:58.619Z,11.74
2022-09-02T03:56:58.621Z,11.77
2022-09-02T03:57:58.624Z,11.82
2022-09-02T03:58:58.605Z,11.82
2022-09-02T03:59:58.584Z,11.82
2022-09-02T04:00:58.642Z,11.81
2022-09-02T04:01:58.716Z,11.74
2022-09-02T04:02:58.601Z,11.64
2022-09-02T04:03:58.547Z,11.63
2022-09-02T04:04:58.526Z,11.59
2022-09-02T04:05:58.602Z,11.59
2022-09-02T04:06:58.530Z,11.46
2022-09-02T04:07:58.506Z,11.44
2022-09-02T04:08:58.479Z,11.45
2022-09-02T04:09:58.483Z,11.46
2022-09-02T04:10:58.496Z,11.36
2022-09-02T04:11:58.445Z,11.36
2022-09-02T04:12:58.452Z,11.24
2022-09-02T04:13:58.459Z,11.23
2022-09-02T04:14:58.416Z,11.53
2022-09-02T04:16:01.641Z,12.01
2022-09-02T04:16:58.420Z,12.18
2022-09-02T04:17:58.402Z,12.12
2022-09-02T04:18:58.373Z,11.94
2022-09-02T04:19:58.366Z,11.87
2022-09-02T04:20:58.349Z,11.84
2022-09-02T04:21:58.344Z,11.72
2022-09-02T04:22:58.359Z,11.57
2022-09-02T04:23:58.376Z,11.49
2022-09-02T04:24:58.327Z,11.54
2022-09-02T04:25:58.316Z,11.60
2022-09-02T04:27:03.333Z,11.54
2022-09-02T04:27:59.304Z,11.59
2022-09-02T04:28:58.320Z,11.62
2022-09-02T04:29:58.246Z,11.60
2022-09-02T04:30:58.309Z,11.69
2022-09-02T04:31:58.234Z,11.51
2022-09-02T04:32:58.228Z,11.54
2022-09-02T04:33:58.223Z,11.36
2022-09-02T04:34:58.213Z,11.26
2022-09-02T04:35:58.249Z,11.21
2022-09-02T04:36:58.210Z,11.26
2022-09-02T04:37:58.158Z,11.38
2022-09-02T04:38:58.154Z,11.48
2022-09-02T04:39:58.150Z,11.44
2022-09-02T04:40:58.225Z,11.39
2022-09-02T04:41:58.138Z,11.27
2022-09-02T04:42:58.104Z,11.23
2022-09-02T04:43:58.150Z,11.16
2022-09-02T04:44:58.119Z,11.12
2022-09-02T04:45:58.165Z,11.11
2022-09-02T04:46:58.065Z,11.20
2022-09-02T04:47:58.091Z,11.12
2022-09-02T04:48:58.050Z,11.12
2022-09-02T04:49:58.040Z,11.09
2022-09-02T04:50:58.091Z,11.09
2022-09-02T04:51:58.036Z,11.01
2022-09-02T04:52:58.028Z,11.01
2022-09-02T04:53:58.010Z,10.95
2022-09-02T04:54:58.003Z,10.95
2022-09-02T04:55:58.350Z,10.99
2022-09-02T04:56:58.002Z,11.03
2022-09-02T04:57:57.956Z,11.11
2022-09-02T04:58:57.937Z,11.16
2022-09-02T04:59:57.928Z,11.08
2022-09-02T05:00:57.922Z,11.05
2022-09-02T05:01:58.035Z,10.91
2022-09-02T05:02:57.949Z,10.86
2022-09-02T05:03:57.880Z,10.86
2022-09-02T05:04:57.911Z,10.84
2022-09-02T05:05:57.893Z,10.86
2022-09-02T05:06:57.842Z,10.75
2022-09-02T05:07:57.848Z,10.86
2022-09-02T05:08:57.945Z,10.90
2022-09-02T05:09:57.821Z,10.90
2022-09-02T05:10:57.827Z,10.88
2022-09-02T05:11:57.799Z,10.88
2022-09-02T05:12:57.816Z,10.99
2022-09-02T05:13:57.794Z,10.86
2022-09-02T05:14:57.817Z,10.84
2022-09-02T05:15:57.892Z,10.90
2022-09-02T05:16:57.743Z,10.91
2022-09-02T05:17:57.738Z,11.02
2022-09-02T05:18:57.757Z,11.01
2022-09-02T05:19:57.760Z,11.06
2022-09-02T05:20:57.732Z,11.05
2022-09-02T05:21:57.702Z,11.03
2022-09-02T05:22:57.730Z,11.03
2022-09-02T05:23:57.686Z,11.12
2022-09-02T05:24:57.725Z,11.38
2022-09-02T05:25:57.657Z,11.74
2022-09-02T05:26:57.640Z,11.96
2022-09-02T05:27:57.693Z,12.26
2022-09-02T05:28:57.623Z,12.34
2022-09-02T05:29:57.662Z,12.36
2022-09-02T05:30:57.667Z,12.41
2022-09-02T05:31:57.607Z,12.41
2022-09-02T05:32:57.571Z,12.26
2022-09-02T05:33:57.584Z,12.25
2022-09-02T05:34:57.549Z,12.26
2022-09-02T05:35:57.613Z,12.30
2022-09-02T05:36:57.530Z,12.23
2022-09-02T05:38:00.756Z,12.25
2022-09-02T05:38:57.501Z,12.29
2022-09-02T05:39:57.750Z,12.11
2022-09-02T05:40:57.557Z,12.15
2022-09-02T05:41:57.480Z,12.18
2022-09-02T05:42:57.479Z,12.19
2022-09-02T05:43:57.466Z,12.11
2022-09-02T05:44:57.470Z,12.26
2022-09-02T05:45:57.493Z,12.16
2022-09-02T05:46:57.516Z,12.15
2022-09-02T05:47:58.362Z,12.13
2022-09-02T05:48:57.398Z,12.15
2022-09-02T05:49:57.381Z,12.26
2022-09-02T05:50:58.630Z,12.25
2022-09-02T05:51:57.373Z,12.40
2022-09-02T05:52:57.356Z,12.40
2022-09-02T05:53:57.341Z,12.40
2022-09-02T05:54:57.332Z,12.51
2022-09-02T05:55:57.564Z,12.49
2022-09-02T05:56:57.935Z,12.61
2022-09-02T05:57:57.301Z,12.71
2022-09-02T05:58:57.306Z,12.76
2022-09-02T05:59:57.271Z,12.73
2022-09-02T06:00:57.279Z,12.85
2022-09-02T06:01:57.402Z,12.89
2022-09-02T06:02:57.313Z,13.06
2022-09-02T06:03:57.229Z,13.22
2022-09-02T06:04:57.721Z,13.21
2022-09-02T06:06:01.753Z,13.24
2022-09-02T06:06:58.222Z,13.25
2022-09-02T06:07:57.190Z,13.29
2022-09-02T06:08:57.177Z,13.29
2022-09-02T06:09:57.166Z,13.31
2022-09-02T06:10:57.160Z,13.43
2022-09-02T06:11:57.209Z,13.48
2022-09-02T06:12:57.148Z,13.51
2022-09-02T06:13:57.621Z,13.59
2022-09-02T06:14:57.165Z,13.65
2022-09-02T06:15:57.172Z,13.63
2022-09-02T06:16:57.094Z,13.73
2022-09-02T06:17:57.081Z,13.91
2022-09-02T06:18:57.117Z,14.21
2022-09-02T06:19:57.146Z,14.63
2022-09-02T06:20:57.080Z,14.94
2022-09-02T06:21:57.044Z,15.31
2022-09-02T06:22:57.236Z,15.67
2022-09-02T06:23:57.152Z,16.07
2022-09-02T06:24:57.025Z,16.70
2022-09-02T06:25:57.045Z,17.27
2022-09-02T06:26:56.995Z,17.76
2022-09-02T06:27:56.972Z,18.29
2022-09-02T06:28:57.009Z,18.59
2022-09-02T06:29:56.951Z,19.06
2022-09-02T06:30:57.225Z,19.32
2022-09-02T06:31:57.114Z,19.60
2022-09-02T06:32:57.019Z,19.43
2022-09-02T06:33:56.939Z,19.05
2022-09-02T06:34:56.896Z,19.09
2022-09-02T06:35:56.914Z,19.06
2022-09-02T06:36:56.908Z,19.21
2022-09-02T06:37:56.935Z,19.17
2022-09-02T06:38:56.880Z,19.13
2022-09-02T06:39:57.243Z,19.13
2022-09-02T06:40:56.950Z,19.27
2022-09-02T06:41:56.874Z,19.32
2022-09-02T06:42:56.810Z,19.49
2022-09-02T06:43:56.796Z,19.83
2022-09-02T06:44:56.796Z,20.19
2022-09-02T06:45:56.879Z,20.50
2022-09-02T06:46:56.766Z,20.90
2022-09-02T06:47:56.788Z,21.33
2022-09-02T06:48:56.942Z,21.66
2022-09-02T06:49:57.146Z,21.96
2022-09-02T06:50:57.316Z,22.09
2022-09-02T06:51:56.734Z,22.36
2022-09-02T06:52:56.711Z,22.38
2022-09-02T06:53:56.691Z,22.51
2022-09-02T06:54:56.732Z,22.54
2022-09-02T06:55:56.702Z,22.69
2022-09-02T06:56:56.700Z,22.75
2022-09-02T06:57:56.787Z,22.82
2022-09-02T06:58:57.165Z,22.51
2022-09-02T07:00:00.015Z,22.59
2022-09-02T07:00:57.686Z,22.56
2022-09-02T07:01:56.822Z,22.31
2022-09-02T07:02:56.599Z,22.41
2022-09-02T07:03:56.608Z,22.64
2022-09-02T07:04:57.639Z,22.67
2022-09-02T07:05:56.569Z,22.69
2022-09-02T07:06:56.789Z,22.72
2022-09-02T07:07:58.453Z,22.88
2022-09-02T07:08:56.529Z,22.91
2022-09-02T07:09:56.520Z,22.81
2022-09-02T07:10:56.510Z,22.93
2022-09-02T07:11:58.154Z,23.19
2022-09-02T07:12:56.556Z,23.47
2022-09-02T07:13:56.470Z,23.59
2022-09-02T07:14:56.473Z,23.49
2022-09-02T07:15:56.906Z,23.53
2022-09-02T07:16:57.205Z,23.23
2022-09-02T07:17:56.447Z,23.19
2022-09-02T07:18:56.428Z,23.01
2022-09-02T07:19:56.412Z,23.03
2022-09-02T07:20:56.439Z,22.89
2022-09-02T07:21:56.529Z,22.42
2022-09-02T07:22:56.690Z,22.45
2022-09-02T07:23:56.402Z,22.46
2022-09-02T07:24:56.546Z,22.76
2022-09-02T07:25:57.140Z,22.99
2022-09-02T07:26:56.352Z,23.22
2022-09-02T07:27:56.326Z,23.06
2022-09-02T07:28:56.313Z,22.66
2022-09-02T07:29:56.334Z,22.51
2022-09-02T07:30:59.628Z,22.49
2022-09-02T07:31:56.308Z,22.48
2022-09-02T07:32:56.314Z,22.61
2022-09-02T07:33:57.123Z,22.64
2022-09-02T07:34:56.942Z,22.97
2022-09-02T07:35:56.243Z,23.35
2022-09-02T07:37:00.240Z,23.37
2022-09-02T07:37:57.235Z,23.49
2022-09-02T07:38:56.232Z,23.59
2022-09-02T07:39:56.239Z,23.57
2022-09-02T07:40:56.753Z,23.72
2022-09-02T07:41:56.241Z,23.84
2022-09-02T07:43:59.571Z,24.33
2022-09-02T07:44:56.149Z,24.33
2022-09-02T07:45:56.215Z,24.31
2022-09-02T07:46:56.156Z,24.68
2022-09-02T07:47:56.159Z,25.02
2022-09-02T07:48:56.119Z,25.04
2022-09-02T07:50:57.115Z,24.71
2022-09-02T07:51:56.271Z,24.61
2022-09-02T07:52:56.171Z,24.49
2022-09-02T07:53:56.044Z,24.52
2022-09-02T07:54:56.033Z,24.93
2022-09-02T07:55:56.039Z,25.01
2022-09-02T07:56:56.083Z,25.22
2022-09-02T07:57:56.037Z,25.27
2022-09-02T07:58:56.011Z,25.35
2022-09-02T07:59:56.156Z,25.74
2022-09-02T08:00:56.447Z,25.91
2022-09-02T08:01:56.034Z,25.82
2022-09-02T08:02:56.121Z,25.59
2022-09-02T08:03:55.932Z,25.61
2022-09-02T08:04:55.960Z,25.63
2022-09-02T08:05:55.912Z,26.01
2022-09-02T08:06:55.968Z,26.09
2022-09-02T08:07:55.895Z,25.97
2022-09-02T08:08:56.171Z,25.93
2022-09-02T08:09:56.190Z,26.00
2022-09-02T08:10:56.030Z,25.41
2022-09-02T08:11:55.871Z,25.49
2022-09-02T08:12:55.839Z,25.69
2022-09-02T08:13:55.884Z,25.60
2022-09-02T08:14:55.839Z,25.20
2022-09-02T08:15:55.857Z,25.27
2022-09-02T08:16:55.888Z,25.45
2022-09-02T08:17:56.045Z,25.69
2022-09-02T08:18:55.957Z,26.03
2022-09-02T08:19:55.879Z,26.21
2022-09-02T08:20:55.755Z,26.49
2022-09-02T08:21:55.765Z,26.03
2022-09-02T08:23:05.283Z,25.94
2022-09-02T08:23:56.739Z,25.96
2022-09-02T08:24:55.764Z,25.82
2022-09-02T08:25:55.697Z,25.59
2022-09-02T08:26:55.765Z,25.38
2022-09-02T08:27:56.807Z,25.61
2022-09-02T08:28:55.766Z,25.64
2022-09-02T08:29:55.678Z,25.86
2022-09-02T08:30:55.645Z,25.54
2022-09-02T08:31:55.725Z,25.64
2022-09-02T08:32:55.627Z,26.00
2022-09-02T08:33:55.648Z,26.29
2022-09-02T08:34:55.615Z,26.54
2022-09-02T08:35:55.708Z,26.49
2022-09-02T08:36:56.627Z,26.42
2022-09-02T08:37:55.569Z,26.42
2022-09-02T08:38:55.560Z,26.69
2022-09-02T08:39:55.550Z,26.69
2022-09-02T08:40:55.594Z,26.94
2022-09-02T08:41:55.650Z,27.03
2022-09-02T08:42:55.517Z,26.53
2022-09-02T08:43:55.566Z,26.65
2022-09-02T08:44:55.543Z,26.65
2022-09-02T08:45:56.109Z,26.42
2022-09-02T08:46:55.482Z,26.73
2022-09-02T08:47:55.475Z,26.91
2022-09-02T08:48:55.453Z,26.87
2022-09-02T08:49:55.466Z,26.51
2022-09-02T08:50:55.441Z,26.29
2022-09-02T08:51:55.462Z,26.23
2022-09-02T08:52:55.445Z,26.34
2022-09-02T08:53:55.467Z,26.57
2022-09-02T08:54:55.735Z,26.47
2022-09-02T08:55:55.391Z,26.65
2022-09-02T08:56:55.408Z,26.97
2022-09-02T08:57:55.427Z,27.21
2022-09-02T08:58:56.481Z,27.45
2022-09-02T08:59:55.348Z,27.68
2022-09-02T09:00:55.508Z,27.72
2022-09-02T09:01:55.388Z,27.68
2022-09-02T09:02:55.460Z,26.66
2022-09-02T09:03:55.603Z,26.19
2022-09-02T09:04:55.275Z,26.36
2022-09-02T09:05:55.294Z,26.73
2022-09-02T09:06:55.303Z,26.93
2022-09-02T09:07:55.248Z,26.79
2022-09-02T09:08:55.271Z,26.73
2022-09-02T09:09:55.314Z,26.84
2022-09-02T09:10:55.240Z,27.08
2022-09-02T09:11:55.313Z,27.35
2022-09-02T09:12:55.351Z,27.28
2022-09-02T09:13:55.180Z,27.11
2022-09-02T09:14:55.221Z,27.38
2022-09-02T09:15:55.168Z,27.35
2022-09-02T09:16:55.224Z,27.76
2022-09-02T09:17:55.155Z,27.96
2022-09-02T09:18:55.149Z,28.09
2022-09-02T09:19:55.154Z,27.80
2022-09-02T09:20:55.290Z,28.01
2022-09-02T09:21:55.165Z,27.99
2022-09-02T09:22:55.095Z,27.76
2022-09-02T09:23:55.104Z,27.65
2022-09-02T09:24:55.144Z,27.61
2022-09-02T09:25:55.090Z,27.66
2022-09-02T09:26:55.055Z,27.83
2022-09-02T09:27:55.077Z,27.74
2022-09-02T09:28:55.046Z,27.76
2022-09-02T09:29:55.139Z,27.46
2022-09-02T09:30:55.038Z,27.76
2022-09-02T09:31:55.092Z,27.83
2022-09-02T09:32:54.988Z,27.76
2022-09-02T09:33:54.967Z,27.39
2022-09-02T09:34:54.956Z,27.34
2022-09-02T09:35:54.964Z,27.13
2022-09-02T09:36:55.023Z,26.34
2022-09-02T09:37:55.250Z,26.47
2022-09-02T09:38:55.220Z,26.66
2022-09-02T09:39:54.944Z,26.61
2022-09-02T09:40:54.980Z,26.94
2022-09-02T09:41:54.907Z,26.91
2022-09-02T09:42:54.966Z,26.76
2022-09-02T09:43:54.859Z,26.87
2022-09-02T09:44:54.869Z,27.12
2022-09-02T09:45:54.949Z,27.06
2022-09-02T09:46:54.985Z,27.06
2022-09-02T09:47:58.475Z,26.96
2022-09-02T09:48:54.869Z,27.31
2022-09-02T09:49:54.818Z,27.52
2022-09-02T09:50:54.786Z,27.78
2022-09-02T09:51:54.819Z,27.99
2022-09-02T09:52:54.771Z,28.11
2022-09-02T09:53:54.754Z,28.17
2022-09-02T09:54:54.800Z,27.98
2022-09-02T09:55:54.852Z,27.93
2022-09-02T09:56:55.184Z,28.17
2022-09-02T09:57:54.787Z,27.84
2022-09-02T09:58:54.711Z,27.98
2022-09-02T09:59:54.709Z,28.15
2022-09-02T10:00:54.778Z,28.13
2022-09-02T10:01:54.719Z,27.86
2022-09-02T10:02:54.668Z,27.90
2022-09-02T10:03:54.701Z,27.74
2022-09-02T10:04:54.821Z,27.88
2022-09-02T10:05:54.737Z,27.81
2022-09-02T10:06:54.652Z,27.84
2022-09-02T10:07:54.614Z,27.99
2022-09-02T10:08:54.598Z,28.11
2022-09-02T10:09:54.598Z,28.25
2022-09-02T10:10:54.663Z,28.32
2022-09-02T10:11:54.590Z,28.54
2022-09-02T10:12:54.599Z,28.97
2022-09-02T10:13:54.612Z,28.65
2022-09-02T10:14:54.889Z,28.88
2022-09-02T10:15:54.576Z,29.00
2022-09-02T10:16:54.619Z,29.10
2022-09-02T10:17:54.509Z,29.11
2022-09-02T10:18:54.501Z,29.10
2022-09-02T10:19:54.566Z,28.52
2022-09-02T10:21:16.954Z,28.15
2022-09-02T10:21:55.499Z,27.68
2022-09-02T10:22:59.495Z,27.49
2022-09-02T10:23:55.816Z,27.08
2022-09-02T10:24:54.484Z,27.16
2022-09-02T10:25:54.434Z,27.35
2022-09-02T10:26:54.569Z,27.77
2022-09-02T10:27:54.444Z,28.05
2022-09-02T10:28:54.448Z,28.24
2022-09-02T10:29:54.385Z,28.28
2022-09-02T10:30:54.376Z,28.62
2022-09-02T10:31:55.306Z,28.54
2022-09-02T10:32:54.521Z,28.67
2022-09-02T10:33:54.370Z,28.45
2022-09-02T10:34:54.329Z,28.28
2022-09-02T10:35:54.360Z,28.39
2022-09-02T10:36:54.435Z,28.46
2022-09-02T10:37:54.318Z,28.87
2022-09-02T10:38:54.294Z,28.98
2022-09-02T10:39:54.378Z,28.91
2022-09-02T10:40:54.467Z,28.89
2022-09-02T10:41:54.476Z,28.58
2022-09-02T10:42:54.256Z,28.30
2022-09-02T10:43:56.745Z,28.43
2022-09-02T10:44:58.347Z,28.03
2022-09-02T10:45:54.296Z,28.33
2022-09-02T10:46:54.301Z,28.46
2022-09-02T10:47:54.211Z,28.82
2022-09-02T10:48:54.439Z,29.12
2022-09-02T10:49:54.290Z,29.26
2022-09-02T10:50:54.290Z,29.17
2022-09-02T10:51:54.174Z,29.11
2022-09-02T10:52:54.164Z,29.47
2022-09-02T10:53:54.147Z,29.58
2022-09-02T10:54:54.139Z,29.48
2022-09-02T10:55:54.209Z,29.57
2022-09-02T10:56:54.154Z,29.44
2022-09-02T10:57:54.176Z,29.21
2022-09-02T10:58:54.212Z,29.35
2022-09-02T10:59:54.097Z,29.42
2022-09-02T11:00:54.155Z,29.88
2022-09-02T11:01:54.097Z,29.91
2022-09-02T11:02:54.044Z,29.92
2022-09-02T11:03:54.112Z,29.78
2022-09-02T11:04:55.089Z,29.74
2022-09-02T11:05:54.023Z,29.76
2022-09-02T11:07:06.324Z,29.47
2022-09-02T11:07:55.145Z,29.57
2022-09-02T11:08:54.024Z,29.42
2022-09-02T11:09:54.001Z,29.44
2022-09-02T11:10:53.982Z,29.49
2022-09-02T11:11:55.879Z,29.36
2022-09-02T11:12:54.006Z,29.12
2022-09-02T11:13:53.990Z,29.26
2022-09-02T11:14:53.953Z,29.27
2022-09-02T11:15:54.042Z,28.85
2022-09-02T11:16:54.063Z,29.08
2022-09-02T11:17:54.105Z,29.14
2022-09-02T11:18:53.908Z,29.42
2022-09-02T11:19:53.908Z,29.67
2022-09-02T11:20:53.903Z,29.81
2022-09-02T11:21:53.887Z,29.82
2022-09-02T11:22:54.300Z,30.00
2022-09-02T11:23:53.892Z,30.25
2022-09-02T11:24:53.839Z,30.46
2022-09-02T11:25:54.057Z,30.40
2022-09-02T11:26:53.830Z,30.46
2022-09-02T11:27:53.812Z,30.57
2022-09-02T11:28:53.810Z,30.70
2022-09-02T11:29:53.780Z,30.40
2022-09-02T11:30:53.834Z,29.88
2022-09-02T11:31:53.788Z,29.70
2022-09-02T11:32:53.765Z,29.95
2022-09-02T11:33:53.907Z,30.15
2022-09-02T11:34:54.019Z,29.91
2022-09-02T11:35:53.773Z,29.79
2022-09-02T11:36:53.732Z,29.86
2022-09-02T11:37:53.728Z,29.88
2022-09-02T11:38:53.696Z,29.30
2022-09-02T11:40:02.309Z,29.20
2022-09-02T11:41:54.802Z,28.27
2022-09-02T11:42:53.760Z,28.13
2022-09-02T11:44:53.629Z,28.80
2022-09-02T11:45:53.663Z,28.82
2022-09-02T11:46:53.699Z,29.00
2022-09-02T11:47:53.605Z,28.95
2022-09-02T11:48:53.647Z,28.98
2022-09-02T11:49:53.584Z,28.94
2022-09-02T11:50:53.592Z,29.14
2022-09-02T11:51:54.140Z,29.41
2022-09-02T11:52:54.718Z,29.35
2022-09-02T11:53:56.095Z,29.47
2022-09-02T11:54:53.575Z,29.86
2022-09-02T11:55:53.537Z,30.08
2022-09-02T11:56:53.511Z,30.23
2022-09-02T11:57:53.508Z,30.40
2022-09-02T11:58:53.498Z,30.40
2022-09-02T11:59:53.566Z,30.26
2022-09-02T12:00:53.517Z,30.28
2022-09-02T12:01:53.600Z,30.26
2022-09-02T12:02:53.468Z,29.89
2022-09-02T12:04:27.556Z,29.41
2022-09-02T12:05:00.451Z,29.48
2022-09-02T12:05:54.555Z,29.79
2022-09-02T12:06:53.483Z,29.76
2022-09-02T12:07:53.460Z,29.92
2022-09-02T12:08:53.402Z,29.82
2022-09-02T12:09:53.621Z,30.25
2022-09-02T12:10:53.436Z,30.49
2022-09-02T12:11:53.424Z,30.38
2022-09-02T12:12:53.362Z,30.40
2022-09-02T12:13:53.375Z,30.60
2022-09-02T12:14:53.369Z,30.66
2022-09-02T12:15:54.222Z,30.81
2022-09-02T12:16:53.345Z,30.76
2022-09-02T12:17:53.360Z,30.76
2022-09-02T12:18:53.364Z,30.76
2022-09-02T12:19:53.330Z,30.67
2022-09-02T12:20:53.314Z,30.36
2022-09-02T12:21:53.295Z,30.34
2022-09-02T12:22:53.315Z,30.73
2022-09-02T12:23:53.285Z,30.61
2022-09-02T12:24:53.276Z,30.75
2022-09-02T12:25:53.305Z,30.75
2022-09-02T12:26:53.324Z,30.98
2022-09-02T12:27:53.626Z,30.82
2022-09-02T12:28:53.222Z,30.96
2022-09-02T12:31:12.090Z,31.28
2022-09-02T12:32:12.000Z,31.27
2022-09-02T12:33:11.989Z,31.57
2022-09-02T12:34:11.982Z,31.68
2022-09-02T12:35:11.998Z,31.75
2022-09-02T12:36:11.986Z,31.65
2022-09-02T12:37:11.953Z,31.46
2022-09-02T12:38:11.950Z,31.72
2022-09-02T12:39:12.006Z,31.72
2022-09-02T12:40:13.129Z,31.88
2022-09-02T12:41:12.974Z,31.75
2022-09-02T12:42:11.916Z,31.88
2022-09-02T12:43:11.908Z,31.84
2022-09-02T12:44:12.017Z,31.59
2022-09-02T12:45:11.876Z,31.74
2022-09-02T12:46:12.000Z,31.64
2022-09-02T12:47:12.009Z,31.68
2022-09-02T12:48:11.867Z,31.34
2022-09-02T12:49:11.989Z,31.10
2022-09-02T12:50:11.855Z,31.07
2022-09-02T12:51:11.816Z,30.97
2022-09-02T12:52:11.833Z,30.86
2022-09-02T12:53:11.811Z,30.40
2022-09-02T12:54:11.814Z,30.45
2022-09-02T12:55:11.815Z,30.46
2022-09-02T12:56:12.761Z,30.42
2022-09-02T12:57:11.855Z,30.30